sensor_id;sensor_type;location;lat;lon;timestamp;P1;durP1;ratioP1;P2;durP2;ratioP2
30398;SDS011;17195;50.838;7.214;2024-02-21T00:01:55;12.63;;;4.22;;
30398;SDS011;17195;50.838;7.214;2024-02-21T00:04:21;13.15;;;4.40;;
30398;SDS011;17195;50.838;7.214;2024-02-21T00:06:46;10.20;;;4.72;;
30398;SDS011;17195;50.838;7.214;2024-02-21T00:09:12;11.57;;;4.53;;
30398;SDS011;17195;50.838;7.214;2024-02-21T00:11:37;11.57;;;3.58;;
30398;SDS011;17195;50.838;7.214;2024-02-21T00:14:03;13.90;;;4.43;;
30398;SDS011;17195;50.838;7.214;2024-02-21T00:16:28;13.45;;;5.03;;
30398;SDS011;17195;50.838;7.214;2024-02-21T00:18:54;9.30;;;3.97;;
30398;SDS011;17195;50.838;7.214;2024-02-21T00:21:19;16.45;;;5.03;;
30398;SDS011;17195;50.838;7.214;2024-02-21T00:23:45;18.65;;;5.55;;
30398;SDS011;17195;50.838;7.214;2024-02-21T00:26:11;11.02;;;4.05;;
30398;SDS011;17195;50.838;7.214;2024-02-21T00:28:38;14.32;;;5.20;;
30398;SDS011;17195;50.838;7.214;2024-02-21T00:31:04;13.45;;;5.50;;
30398;SDS011;17195;50.838;7.214;2024-02-21T00:33:30;13.45;;;4.70;;
30398;SDS011;17195;50.838;7.214;2024-02-21T00:35:55;16.02;;;5.78;;
30398;SDS011;17195;50.838;7.214;2024-02-21T00:38:21;12.48;;;4.18;;
30398;SDS011;17195;50.838;7.214;2024-02-21T00:40:46;14.20;;;4.93;;
30398;SDS011;17195;50.838;7.214;2024-02-21T00:43:12;13.70;;;4.30;;
30398;SDS011;17195;50.838;7.214;2024-02-21T00:45:38;18.55;;;5.75;;
30398;SDS011;17195;50.838;7.214;2024-02-21T00:48:03;15.65;;;4.35;;
30398;SDS011;17195;50.838;7.214;2024-02-21T00:50:29;14.48;;;5.50;;
30398;SDS011;17195;50.838;7.214;2024-02-21T00:52:55;13.05;;;4.80;;
30398;SDS011;17195;50.838;7.214;2024-02-21T00:55:20;12.88;;;4.25;;
30398;SDS011;17195;50.838;7.214;2024-02-21T00:57:46;11.77;;;4.78;;
30398;SDS011;17195;50.838;7.214;2024-02-21T01:00:12;14.40;;;5.15;;
30398;SDS011;17195;50.838;7.214;2024-02-21T01:02:38;17.58;;;4.90;;
30398;SDS011;17195;50.838;7.214;2024-02-21T01:05:04;13.60;;;4.47;;
30398;SDS011;17195;50.838;7.214;2024-02-21T01:07:30;11.52;;;4.05;;
30398;SDS011;17195;50.838;7.214;2024-02-21T01:09:55;14.93;;;4.85;;
30398;SDS011;17195;50.838;7.214;2024-02-21T01:12:21;13.13;;;4.88;;
30398;SDS011;17195;50.838;7.214;2024-02-21T01:14:47;13.82;;;4.32;;
30398;SDS011;17195;50.838;7.214;2024-02-21T01:17:14;10.05;;;4.40;;
30398;SDS011;17195;50.838;7.214;2024-02-21T01:19:40;11.90;;;3.80;;
30398;SDS011;17195;50.838;7.214;2024-02-21T01:22:05;13.73;;;4.68;;
30398;SDS011;17195;50.838;7.214;2024-02-21T01:24:31;13.02;;;4.35;;
30398;SDS011;17195;50.838;7.214;2024-02-21T01:26:56;10.75;;;3.60;;
30398;SDS011;17195;50.838;7.214;2024-02-21T01:29:22;16.45;;;4.25;;
30398;SDS011;17195;50.838;7.214;2024-02-21T01:31:47;7.80;;;3.42;;
30398;SDS011;17195;50.838;7.214;2024-02-21T01:34:13;10.70;;;4.22;;
30398;SDS011;17195;50.838;7.214;2024-02-21T01:36:39;9.70;;;3.92;;
30398;SDS011;17195;50.838;7.214;2024-02-21T01:39:04;8.70;;;4.15;;
30398;SDS011;17195;50.838;7.214;2024-02-21T01:41:30;13.52;;;4.72;;
30398;SDS011;17195;50.838;7.214;2024-02-21T01:43:56;13.32;;;4.53;;
30398;SDS011;17195;50.838;7.214;2024-02-21T01:46:22;12.57;;;4.63;;
30398;SDS011;17195;50.838;7.214;2024-02-21T01:48:52;11.23;;;4.15;;
30398;SDS011;17195;50.838;7.214;2024-02-21T01:51:18;15.73;;;4.53;;
30398;SDS011;17195;50.838;7.214;2024-02-21T01:53:44;12.93;;;3.83;;
30398;SDS011;17195;50.838;7.214;2024-02-21T01:56:10;10.55;;;3.80;;
30398;SDS011;17195;50.838;7.214;2024-02-21T01:58:38;12.32;;;4.32;;
30398;SDS011;17195;50.838;7.214;2024-02-21T02:01:05;12.88;;;3.90;;
30398;SDS011;17195;50.838;7.214;2024-02-21T02:03:31;11.32;;;4.10;;
30398;SDS011;17195;50.838;7.214;2024-02-21T02:05:57;10.10;;;4.20;;
30398;SDS011;17195;50.838;7.214;2024-02-21T02:08:22;9.07;;;3.67;;
30398;SDS011;17195;50.838;7.214;2024-02-21T02:10:48;9.38;;;3.03;;
30398;SDS011;17195;50.838;7.214;2024-02-21T02:13:14;12.65;;;4.13;;
30398;SDS011;17195;50.838;7.214;2024-02-21T02:15:40;13.32;;;3.92;;
30398;SDS011;17195;50.838;7.214;2024-02-21T02:18:07;13.15;;;3.63;;
30398;SDS011;17195;50.838;7.214;2024-02-21T02:20:33;15.10;;;4.20;;
30398;SDS011;17195;50.838;7.214;2024-02-21T02:22:59;14.63;;;4.20;;
30398;SDS011;17195;50.838;7.214;2024-02-21T02:25:26;10.65;;;3.78;;
30398;SDS011;17195;50.838;7.214;2024-02-21T02:27:53;11.93;;;3.88;;
30398;SDS011;17195;50.838;7.214;2024-02-21T02:30:18;11.05;;;3.95;;
30398;SDS011;17195;50.838;7.214;2024-02-21T02:32:45;15.43;;;3.97;;
30398;SDS011;17195;50.838;7.214;2024-02-21T02:35:13;13.02;;;3.92;;
30398;SDS011;17195;50.838;7.214;2024-02-21T02:37:39;14.32;;;4.25;;
30398;SDS011;17195;50.838;7.214;2024-02-21T02:40:05;13.70;;;4.22;;
30398;SDS011;17195;50.838;7.214;2024-02-21T02:42:31;11.90;;;4.40;;
30398;SDS011;17195;50.838;7.214;2024-02-21T02:44:57;12.00;;;4.30;;
30398;SDS011;17195;50.838;7.214;2024-02-21T02:47:23;10.25;;;3.70;;
30398;SDS011;17195;50.838;7.214;2024-02-21T02:49:48;8.98;;;3.47;;
30398;SDS011;17195;50.838;7.214;2024-02-21T02:52:16;13.02;;;3.90;;
30398;SDS011;17195;50.838;7.214;2024-02-21T02:54:42;12.48;;;3.50;;
30398;SDS011;17195;50.838;7.214;2024-02-21T02:57:07;11.55;;;3.78;;
30398;SDS011;17195;50.838;7.214;2024-02-21T02:59:33;12.57;;;4.10;;
30398;SDS011;17195;50.838;7.214;2024-02-21T03:01:58;12.95;;;4.25;;
30398;SDS011;17195;50.838;7.214;2024-02-21T03:04:24;11.20;;;3.75;;
30398;SDS011;17195;50.838;7.214;2024-02-21T03:06:49;11.13;;;4.20;;
30398;SDS011;17195;50.838;7.214;2024-02-21T03:09:15;9.75;;;3.50;;
30398;SDS011;17195;50.838;7.214;2024-02-21T03:11:42;10.32;;;3.40;;
30398;SDS011;17195;50.838;7.214;2024-02-21T03:14:09;13.00;;;3.97;;
30398;SDS011;17195;50.838;7.214;2024-02-21T03:16:35;13.10;;;3.97;;
30398;SDS011;17195;50.838;7.214;2024-02-21T03:19:00;15.00;;;3.58;;
30398;SDS011;17195;50.838;7.214;2024-02-21T03:21:26;9.73;;;3.55;;
30398;SDS011;17195;50.838;7.214;2024-02-21T03:23:51;14.18;;;4.43;;
30398;SDS011;17195;50.838;7.214;2024-02-21T03:26:17;14.57;;;3.92;;
30398;SDS011;17195;50.838;7.214;2024-02-21T03:28:43;8.85;;;3.38;;
30398;SDS011;17195;50.838;7.214;2024-02-21T03:31:11;18.42;;;4.28;;
30398;SDS011;17195;50.838;7.214;2024-02-21T03:33:38;12.45;;;3.65;;
30398;SDS011;17195;50.838;7.214;2024-02-21T03:36:12;12.05;;;3.88;;
30398;SDS011;17195;50.838;7.214;2024-02-21T03:38:39;10.75;;;3.58;;
30398;SDS011;17195;50.838;7.214;2024-02-21T03:41:05;14.40;;;4.70;;
30398;SDS011;17195;50.838;7.214;2024-02-21T03:43:30;12.57;;;3.72;;
30398;SDS011;17195;50.838;7.214;2024-02-21T03:45:56;12.93;;;3.75;;
30398;SDS011;17195;50.838;7.214;2024-02-21T03:48:21;14.75;;;4.10;;
30398;SDS011;17195;50.838;7.214;2024-02-21T03:50:47;9.73;;;3.22;;
30398;SDS011;17195;50.838;7.214;2024-02-21T03:53:12;9.90;;;3.65;;
30398;SDS011;17195;50.838;7.214;2024-02-21T03:55:38;12.60;;;4.28;;
30398;SDS011;17195;50.838;7.214;2024-02-21T03:58:03;12.10;;;3.67;;
30398;SDS011;17195;50.838;7.214;2024-02-21T04:00:29;10.98;;;3.92;;
30398;SDS011;17195;50.838;7.214;2024-02-21T04:02:54;13.15;;;4.07;;
30398;SDS011;17195;50.838;7.214;2024-02-21T04:05:20;12.02;;;3.55;;
30398;SDS011;17195;50.838;7.214;2024-02-21T04:07:46;10.38;;;3.72;;
30398;SDS011;17195;50.838;7.214;2024-02-21T04:10:12;14.50;;;3.40;;
30398;SDS011;17195;50.838;7.214;2024-02-21T04:12:37;14.57;;;3.92;;
30398;SDS011;17195;50.838;7.214;2024-02-21T04:15:03;17.45;;;4.40;;
30398;SDS011;17195;50.838;7.214;2024-02-21T04:17:29;12.70;;;4.03;;
30398;SDS011;17195;50.838;7.214;2024-02-21T04:20:03;13.35;;;4.30;;
30398;SDS011;17195;50.838;7.214;2024-02-21T04:22:30;8.23;;;3.28;;
30398;SDS011;17195;50.838;7.214;2024-02-21T04:24:59;13.13;;;4.43;;
30398;SDS011;17195;50.838;7.214;2024-02-21T04:27:25;9.18;;;3.25;;
30398;SDS011;17195;50.838;7.214;2024-02-21T04:29:50;15.93;;;4.18;;
30398;SDS011;17195;50.838;7.214;2024-02-21T04:32:16;11.50;;;3.20;;
30398;SDS011;17195;50.838;7.214;2024-02-21T04:34:42;13.05;;;4.32;;
30398;SDS011;17195;50.838;7.214;2024-02-21T04:37:07;10.15;;;3.20;;
30398;SDS011;17195;50.838;7.214;2024-02-21T04:39:33;12.45;;;3.83;;
30398;SDS011;17195;50.838;7.214;2024-02-21T04:41:58;12.32;;;4.03;;
30398;SDS011;17195;50.838;7.214;2024-02-21T04:44:24;11.02;;;3.63;;
30398;SDS011;17195;50.838;7.214;2024-02-21T04:46:49;10.15;;;3.00;;
30398;SDS011;17195;50.838;7.214;2024-02-21T04:49:15;10.98;;;3.08;;
30398;SDS011;17195;50.838;7.214;2024-02-21T04:51:41;12.82;;;3.67;;
30398;SDS011;17195;50.838;7.214;2024-02-21T04:54:06;11.93;;;3.63;;
30398;SDS011;17195;50.838;7.214;2024-02-21T04:56:32;9.18;;;3.20;;
30398;SDS011;17195;50.838;7.214;2024-02-21T04:58:57;10.70;;;3.55;;
30398;SDS011;17195;50.838;7.214;2024-02-21T05:01:23;12.30;;;3.33;;
30398;SDS011;17195;50.838;7.214;2024-02-21T05:03:48;13.75;;;3.45;;
30398;SDS011;17195;50.838;7.214;2024-02-21T05:06:14;10.70;;;3.85;;
30398;SDS011;17195;50.838;7.214;2024-02-21T05:08:40;8.45;;;2.80;;
30398;SDS011;17195;50.838;7.214;2024-02-21T05:11:05;10.43;;;3.13;;
30398;SDS011;17195;50.838;7.214;2024-02-21T05:13:31;11.40;;;2.95;;
30398;SDS011;17195;50.838;7.214;2024-02-21T05:15:56;13.05;;;3.20;;
30398;SDS011;17195;50.838;7.214;2024-02-21T05:18:22;7.35;;;3.03;;
30398;SDS011;17195;50.838;7.214;2024-02-21T05:20:47;8.95;;;3.28;;
30398;SDS011;17195;50.838;7.214;2024-02-21T05:23:13;9.80;;;3.45;;
30398;SDS011;17195;50.838;7.214;2024-02-21T05:25:38;10.65;;;3.53;;
30398;SDS011;17195;50.838;7.214;2024-02-21T05:28:04;14.30;;;4.25;;
30398;SDS011;17195;50.838;7.214;2024-02-21T05:30:31;11.60;;;3.63;;
30398;SDS011;17195;50.838;7.214;2024-02-21T05:32:56;8.23;;;3.00;;
30398;SDS011;17195;50.838;7.214;2024-02-21T05:35:26;11.10;;;2.85;;
30398;SDS011;17195;50.838;7.214;2024-02-21T05:37:52;11.45;;;2.75;;
30398;SDS011;17195;50.838;7.214;2024-02-21T05:40:18;11.95;;;3.33;;
30398;SDS011;17195;50.838;7.214;2024-02-21T05:42:43;10.32;;;3.10;;
30398;SDS011;17195;50.838;7.214;2024-02-21T05:45:09;12.02;;;3.70;;
30398;SDS011;17195;50.838;7.214;2024-02-21T05:47:34;10.50;;;3.33;;
30398;SDS011;17195;50.838;7.214;2024-02-21T05:50:00;8.98;;;2.83;;
30398;SDS011;17195;50.838;7.214;2024-02-21T05:52:25;11.20;;;2.97;;
30398;SDS011;17195;50.838;7.214;2024-02-21T05:54:51;10.85;;;2.85;;
30398;SDS011;17195;50.838;7.214;2024-02-21T05:57:17;10.02;;;3.03;;
30398;SDS011;17195;50.838;7.214;2024-02-21T05:59:43;12.20;;;3.03;;
30398;SDS011;17195;50.838;7.214;2024-02-21T06:02:09;9.63;;;2.58;;
30398;SDS011;17195;50.838;7.214;2024-02-21T06:04:34;7.97;;;2.97;;
30398;SDS011;17195;50.838;7.214;2024-02-21T06:07:00;14.25;;;2.63;;
30398;SDS011;17195;50.838;7.214;2024-02-21T06:09:26;10.95;;;3.13;;
30398;SDS011;17195;50.838;7.214;2024-02-21T06:11:52;10.85;;;3.15;;
30398;SDS011;17195;50.838;7.214;2024-02-21T06:14:18;14.25;;;3.17;;
30398;SDS011;17195;50.838;7.214;2024-02-21T06:16:44;12.25;;;3.92;;
30398;SDS011;17195;50.838;7.214;2024-02-21T06:19:10;10.63;;;3.78;;
30398;SDS011;17195;50.838;7.214;2024-02-21T06:21:35;12.10;;;3.55;;
30398;SDS011;17195;50.838;7.214;2024-02-21T06:24:01;12.63;;;3.70;;
30398;SDS011;17195;50.838;7.214;2024-02-21T06:26:27;5.78;;;2.70;;
30398;SDS011;17195;50.838;7.214;2024-02-21T06:28:53;8.13;;;2.42;;
30398;SDS011;17195;50.838;7.214;2024-02-21T06:31:18;10.80;;;3.05;;
30398;SDS011;17195;50.838;7.214;2024-02-21T06:33:44;6.68;;;2.20;;
30398;SDS011;17195;50.838;7.214;2024-02-21T06:36:09;9.00;;;2.83;;
30398;SDS011;17195;50.838;7.214;2024-02-21T06:38:35;11.57;;;2.67;;
30398;SDS011;17195;50.838;7.214;2024-02-21T06:41:00;8.00;;;2.35;;
30398;SDS011;17195;50.838;7.214;2024-02-21T06:43:27;9.30;;;3.10;;
30398;SDS011;17195;50.838;7.214;2024-02-21T06:45:53;10.45;;;2.95;;
30398;SDS011;17195;50.838;7.214;2024-02-21T06:48:20;11.55;;;2.53;;
30398;SDS011;17195;50.838;7.214;2024-02-21T06:50:45;10.65;;;3.22;;
30398;SDS011;17195;50.838;7.214;2024-02-21T06:53:11;11.80;;;2.85;;
30398;SDS011;17195;50.838;7.214;2024-02-21T06:55:37;6.57;;;2.72;;
30398;SDS011;17195;50.838;7.214;2024-02-21T06:58:02;13.88;;;3.20;;
30398;SDS011;17195;50.838;7.214;2024-02-21T07:00:28;10.13;;;3.05;;
30398;SDS011;17195;50.838;7.214;2024-02-21T07:02:54;9.73;;;2.72;;
30398;SDS011;17195;50.838;7.214;2024-02-21T07:05:20;10.18;;;2.78;;
30398;SDS011;17195;50.838;7.214;2024-02-21T07:07:45;13.77;;;3.65;;
30398;SDS011;17195;50.838;7.214;2024-02-21T07:10:11;7.68;;;3.45;;
30398;SDS011;17195;50.838;7.214;2024-02-21T07:12:36;12.25;;;3.13;;
30398;SDS011;17195;50.838;7.214;2024-02-21T07:15:06;7.05;;;2.78;;
30398;SDS011;17195;50.838;7.214;2024-02-21T07:17:32;11.85;;;3.55;;
30398;SDS011;17195;50.838;7.214;2024-02-21T07:19:58;12.73;;;3.33;;
30398;SDS011;17195;50.838;7.214;2024-02-21T07:22:24;10.35;;;3.40;;
30398;SDS011;17195;50.838;7.214;2024-02-21T07:24:50;10.38;;;3.20;;
30398;SDS011;17195;50.838;7.214;2024-02-21T07:27:15;12.63;;;3.03;;
30398;SDS011;17195;50.838;7.214;2024-02-21T07:29:41;12.02;;;3.25;;
30398;SDS011;17195;50.838;7.214;2024-02-21T07:32:07;13.25;;;3.55;;
30398;SDS011;17195;50.838;7.214;2024-02-21T07:34:32;9.80;;;3.45;;
30398;SDS011;17195;50.838;7.214;2024-02-21T07:36:58;11.55;;;3.20;;
30398;SDS011;17195;50.838;7.214;2024-02-21T07:39:23;8.80;;;2.70;;
30398;SDS011;17195;50.838;7.214;2024-02-21T07:41:49;11.80;;;3.22;;
30398;SDS011;17195;50.838;7.214;2024-02-21T07:44:15;13.93;;;3.60;;
30398;SDS011;17195;50.838;7.214;2024-02-21T07:46:41;9.00;;;2.85;;
30398;SDS011;17195;50.838;7.214;2024-02-21T07:49:06;11.88;;;3.45;;
30398;SDS011;17195;50.838;7.214;2024-02-21T07:51:32;10.20;;;3.03;;
30398;SDS011;17195;50.838;7.214;2024-02-21T07:53:57;11.60;;;3.92;;
30398;SDS011;17195;50.838;7.214;2024-02-21T07:56:23;11.68;;;3.50;;
30398;SDS011;17195;50.838;7.214;2024-02-21T07:58:48;10.95;;;3.30;;
30398;SDS011;17195;50.838;7.214;2024-02-21T08:01:20;9.15;;;3.38;;
30398;SDS011;17195;50.838;7.214;2024-02-21T08:03:46;13.23;;;4.13;;
30398;SDS011;17195;50.838;7.214;2024-02-21T08:06:13;11.00;;;3.63;;
30398;SDS011;17195;50.838;7.214;2024-02-21T08:08:39;14.77;;;4.07;;
30398;SDS011;17195;50.838;7.214;2024-02-21T08:11:04;11.25;;;4.07;;
30398;SDS011;17195;50.838;7.214;2024-02-21T08:13:30;14.20;;;3.78;;
30398;SDS011;17195;50.838;7.214;2024-02-21T08:15:56;11.60;;;3.13;;
30398;SDS011;17195;50.838;7.214;2024-02-21T08:18:22;15.98;;;4.00;;
30398;SDS011;17195;50.838;7.214;2024-02-21T08:20:48;13.85;;;3.75;;
30398;SDS011;17195;50.838;7.214;2024-02-21T08:23:15;10.30;;;3.20;;
30398;SDS011;17195;50.838;7.214;2024-02-21T08:25:42;18.90;;;4.20;;
30398;SDS011;17195;50.838;7.214;2024-02-21T08:28:07;12.77;;;3.72;;
30398;SDS011;17195;50.838;7.214;2024-02-21T08:30:33;12.55;;;3.97;;
30398;SDS011;17195;50.838;7.214;2024-02-21T08:32:59;14.55;;;4.40;;
30398;SDS011;17195;50.838;7.214;2024-02-21T08:35:26;12.10;;;4.60;;
30398;SDS011;17195;50.838;7.214;2024-02-21T08:37:51;13.93;;;3.80;;
30398;SDS011;17195;50.838;7.214;2024-02-21T08:40:17;14.45;;;3.95;;
30398;SDS011;17195;50.838;7.214;2024-02-21T08:42:45;14.50;;;4.57;;
30398;SDS011;17195;50.838;7.214;2024-02-21T08:45:11;11.05;;;3.15;;
30398;SDS011;17195;50.838;7.214;2024-02-21T08:47:39;11.77;;;4.03;;
30398;SDS011;17195;50.838;7.214;2024-02-21T08:50:05;10.70;;;3.78;;
30398;SDS011;17195;50.838;7.214;2024-02-21T08:52:32;10.52;;;3.38;;
30398;SDS011;17195;50.838;7.214;2024-02-21T08:54:57;11.02;;;4.18;;
30398;SDS011;17195;50.838;7.214;2024-02-21T08:57:23;10.27;;;3.33;;
30398;SDS011;17195;50.838;7.214;2024-02-21T08:59:48;12.25;;;3.28;;
30398;SDS011;17195;50.838;7.214;2024-02-21T09:02:14;13.95;;;3.95;;
30398;SDS011;17195;50.838;7.214;2024-02-21T09:04:41;12.60;;;3.20;;
30398;SDS011;17195;50.838;7.214;2024-02-21T09:07:07;12.18;;;3.67;;
30398;SDS011;17195;50.838;7.214;2024-02-21T09:09:32;8.93;;;3.30;;
30398;SDS011;17195;50.838;7.214;2024-02-21T09:11:58;11.63;;;3.70;;
30398;SDS011;17195;50.838;7.214;2024-02-21T09:14:30;14.05;;;4.20;;
30398;SDS011;17195;50.838;7.214;2024-02-21T09:16:56;14.18;;;3.45;;
30398;SDS011;17195;50.838;7.214;2024-02-21T09:19:22;9.85;;;2.85;;
30398;SDS011;17195;50.838;7.214;2024-02-21T09:21:47;15.13;;;3.42;;
30398;SDS011;17195;50.838;7.214;2024-02-21T09:24:14;16.40;;;4.07;;
30398;SDS011;17195;50.838;7.214;2024-02-21T09:26:39;12.57;;;3.35;;
30398;SDS011;17195;50.838;7.214;2024-02-21T09:29:05;12.02;;;3.90;;
30398;SDS011;17195;50.838;7.214;2024-02-21T09:31:30;10.82;;;3.40;;
30398;SDS011;17195;50.838;7.214;2024-02-21T09:33:56;10.20;;;3.20;;
30398;SDS011;17195;50.838;7.214;2024-02-21T09:36:21;10.23;;;3.72;;
30398;SDS011;17195;50.838;7.214;2024-02-21T09:38:47;17.63;;;3.60;;
30398;SDS011;17195;50.838;7.214;2024-02-21T09:41:16;12.07;;;3.65;;
30398;SDS011;17195;50.838;7.214;2024-02-21T09:43:43;12.20;;;4.10;;
30398;SDS011;17195;50.838;7.214;2024-02-21T09:46:16;11.63;;;3.15;;
30398;SDS011;17195;50.838;7.214;2024-02-21T09:51:16;17.00;;;4.63;;
30398;SDS011;17195;50.838;7.214;2024-02-21T09:53:43;12.63;;;4.00;;
30398;SDS011;17195;50.838;7.214;2024-02-21T09:56:10;12.10;;;4.00;;
30398;SDS011;17195;50.838;7.214;2024-02-21T09:58:37;12.60;;;4.10;;
30398;SDS011;17195;50.838;7.214;2024-02-21T10:01:03;10.90;;;3.20;;
30398;SDS011;17195;50.838;7.214;2024-02-21T10:03:32;11.35;;;3.45;;
30398;SDS011;17195;50.838;7.214;2024-02-21T10:05:58;12.43;;;3.08;;
30398;SDS011;17195;50.838;7.214;2024-02-21T10:08:26;9.00;;;2.88;;
30398;SDS011;17195;50.838;7.214;2024-02-21T10:10:51;10.30;;;3.30;;
30398;SDS011;17195;50.838;7.214;2024-02-21T10:13:24;12.57;;;3.30;;
30398;SDS011;17195;50.838;7.214;2024-02-21T10:16:01;11.88;;;3.03;;
30398;SDS011;17195;50.838;7.214;2024-02-21T10:18:28;10.00;;;2.90;;
30398;SDS011;17195;50.838;7.214;2024-02-21T10:21:00;11.95;;;3.40;;
30398;SDS011;17195;50.838;7.214;2024-02-21T10:23:26;11.57;;;3.78;;
30398;SDS011;17195;50.838;7.214;2024-02-21T10:25:51;11.98;;;3.30;;
30398;SDS011;17195;50.838;7.214;2024-02-21T10:28:17;9.43;;;2.97;;
30398;SDS011;17195;50.838;7.214;2024-02-21T10:30:51;10.95;;;2.78;;
30398;SDS011;17195;50.838;7.214;2024-02-21T10:33:17;12.30;;;3.25;;
30398;SDS011;17195;50.838;7.214;2024-02-21T10:35:45;8.88;;;2.60;;
30398;SDS011;17195;50.838;7.214;2024-02-21T10:38:12;13.70;;;3.10;;
30398;SDS011;17195;50.838;7.214;2024-02-21T10:40:37;12.68;;;3.25;;
30398;SDS011;17195;50.838;7.214;2024-02-21T10:43:03;11.25;;;3.08;;
30398;SDS011;17195;50.838;7.214;2024-02-21T10:45:36;8.32;;;2.75;;
30398;SDS011;17195;50.838;7.214;2024-02-21T10:55:58;14.20;;;3.33;;
30398;SDS011;17195;50.838;7.214;2024-02-21T10:58:35;8.70;;;3.22;;
30398;SDS011;17195;50.838;7.214;2024-02-21T11:01:02;10.18;;;2.80;;
30398;SDS011;17195;50.838;7.214;2024-02-21T11:03:29;12.98;;;2.80;;
30398;SDS011;17195;50.838;7.214;2024-02-21T11:05:55;5.05;;;2.40;;
30398;SDS011;17195;50.838;7.214;2024-02-21T11:08:21;9.65;;;2.60;;
30398;SDS011;17195;50.838;7.214;2024-02-21T11:10:49;9.43;;;2.50;;
30398;SDS011;17195;50.838;7.214;2024-02-21T11:13:15;12.40;;;3.25;;
30398;SDS011;17195;50.838;7.214;2024-02-21T11:15:41;12.45;;;3.10;;
30398;SDS011;17195;50.838;7.214;2024-02-21T11:18:07;9.05;;;2.67;;
30398;SDS011;17195;50.838;7.214;2024-02-21T11:20:33;7.72;;;2.35;;
30398;SDS011;17195;50.838;7.214;2024-02-21T11:23:02;7.88;;;2.50;;
30398;SDS011;17195;50.838;7.214;2024-02-21T11:25:29;7.82;;;2.25;;
30398;SDS011;17195;50.838;7.214;2024-02-21T11:28:04;9.02;;;2.75;;
30398;SDS011;17195;50.838;7.214;2024-02-21T11:30:32;12.35;;;2.50;;
30398;SDS011;17195;50.838;7.214;2024-02-21T11:33:03;8.70;;;2.50;;
30398;SDS011;17195;50.838;7.214;2024-02-21T11:35:34;10.15;;;2.75;;
30398;SDS011;17195;50.838;7.214;2024-02-21T11:38:10;7.88;;;2.35;;
30398;SDS011;17195;50.838;7.214;2024-02-21T11:40:46;10.10;;;2.95;;
30398;SDS011;17195;50.838;7.214;2024-02-21T11:43:12;10.07;;;2.55;;
30398;SDS011;17195;50.838;7.214;2024-02-21T11:45:37;10.00;;;2.42;;
30398;SDS011;17195;50.838;7.214;2024-02-21T11:48:05;8.95;;;2.60;;
30398;SDS011;17195;50.838;7.214;2024-02-21T11:50:31;6.35;;;2.00;;
30398;SDS011;17195;50.838;7.214;2024-02-21T11:52:57;7.82;;;2.42;;
30398;SDS011;17195;50.838;7.214;2024-02-21T11:55:23;7.38;;;2.30;;
30398;SDS011;17195;50.838;7.214;2024-02-21T11:57:48;10.07;;;2.70;;
30398;SDS011;17195;50.838;7.214;2024-02-21T12:02:41;8.10;;;2.58;;
30398;SDS011;17195;50.838;7.214;2024-02-21T12:05:07;7.78;;;2.10;;
30398;SDS011;17195;50.838;7.214;2024-02-21T12:07:35;5.63;;;2.38;;
30398;SDS011;17195;50.838;7.214;2024-02-21T12:10:06;9.77;;;2.33;;
30398;SDS011;17195;50.838;7.214;2024-02-21T12:12:34;10.07;;;2.45;;
30398;SDS011;17195;50.838;7.214;2024-02-21T12:15:02;9.00;;;2.28;;
30398;SDS011;17195;50.838;7.214;2024-02-21T12:17:35;8.05;;;2.42;;
30398;SDS011;17195;50.838;7.214;2024-02-21T12:20:03;8.00;;;2.72;;
30398;SDS011;17195;50.838;7.214;2024-02-21T12:22:39;7.80;;;2.10;;
30398;SDS011;17195;50.838;7.214;2024-02-21T12:25:04;6.43;;;1.98;;
30398;SDS011;17195;50.838;7.214;2024-02-21T12:27:45;7.40;;;2.13;;
30398;SDS011;17195;50.838;7.214;2024-02-21T12:30:11;8.50;;;2.15;;
30398;SDS011;17195;50.838;7.214;2024-02-21T12:32:37;8.43;;;2.40;;
30398;SDS011;17195;50.838;7.214;2024-02-21T12:35:03;7.28;;;2.10;;
30398;SDS011;17195;50.838;7.214;2024-02-21T12:37:29;8.95;;;2.70;;
30398;SDS011;17195;50.838;7.214;2024-02-21T12:39:54;11.18;;;3.03;;
30398;SDS011;17195;50.838;7.214;2024-02-21T12:42:20;8.50;;;2.45;;
30398;SDS011;17195;50.838;7.214;2024-02-21T12:44:45;11.02;;;2.33;;
30398;SDS011;17195;50.838;7.214;2024-02-21T12:47:11;8.02;;;2.30;;
30398;SDS011;17195;50.838;7.214;2024-02-21T12:49:37;6.78;;;2.42;;
30398;SDS011;17195;50.838;7.214;2024-02-21T12:52:03;9.55;;;2.42;;
30398;SDS011;17195;50.838;7.214;2024-02-21T12:54:28;10.63;;;2.58;;
30398;SDS011;17195;50.838;7.214;2024-02-21T12:56:55;5.57;;;2.03;;
30398;SDS011;17195;50.838;7.214;2024-02-21T12:59:21;9.05;;;2.30;;
30398;SDS011;17195;50.838;7.214;2024-02-21T13:01:47;8.73;;;2.60;;
30398;SDS011;17195;50.838;7.214;2024-02-21T13:04:12;9.85;;;2.92;;
30398;SDS011;17195;50.838;7.214;2024-02-21T13:06:38;11.10;;;5.60;;
30398;SDS011;17195;50.838;7.214;2024-02-21T13:09:03;29.50;;;13.45;;
30398;SDS011;17195;50.838;7.214;2024-02-21T13:11:33;17.77;;;7.28;;
30398;SDS011;17195;50.838;7.214;2024-02-21T13:13:59;10.88;;;3.35;;
30398;SDS011;17195;50.838;7.214;2024-02-21T13:16:25;7.55;;;2.35;;
30398;SDS011;17195;50.838;7.214;2024-02-21T13:18:54;7.75;;;2.85;;
30398;SDS011;17195;50.838;7.214;2024-02-21T13:21:19;6.57;;;2.22;;
30398;SDS011;17195;50.838;7.214;2024-02-21T13:23:45;9.60;;;3.35;;
30398;SDS011;17195;50.838;7.214;2024-02-21T13:26:10;9.52;;;2.45;;
30398;SDS011;17195;50.838;7.214;2024-02-21T13:28:37;10.23;;;3.47;;
30398;SDS011;17195;50.838;7.214;2024-02-21T13:31:03;9.43;;;2.40;;
30398;SDS011;17195;50.838;7.214;2024-02-21T13:33:28;9.82;;;2.28;;
30398;SDS011;17195;50.838;7.214;2024-02-21T13:35:54;7.30;;;2.75;;
30398;SDS011;17195;50.838;7.214;2024-02-21T13:38:19;9.70;;;2.00;;
30398;SDS011;17195;50.838;7.214;2024-02-21T13:40:45;10.80;;;2.33;;
30398;SDS011;17195;50.838;7.214;2024-02-21T13:43:11;7.40;;;2.50;;
30398;SDS011;17195;50.838;7.214;2024-02-21T13:45:37;6.97;;;2.38;;
30398;SDS011;17195;50.838;7.214;2024-02-21T13:48:03;6.10;;;2.00;;
30398;SDS011;17195;50.838;7.214;2024-02-21T13:50:31;8.02;;;2.17;;
30398;SDS011;17195;50.838;7.214;2024-02-21T13:52:57;6.40;;;2.65;;
30398;SDS011;17195;50.838;7.214;2024-02-21T13:55:23;10.50;;;2.47;;
30398;SDS011;17195;50.838;7.214;2024-02-21T13:57:51;8.98;;;2.03;;
30398;SDS011;17195;50.838;7.214;2024-02-21T14:00:17;6.03;;;2.35;;
30398;SDS011;17195;50.838;7.214;2024-02-21T14:02:43;6.97;;;2.22;;
30398;SDS011;17195;50.838;7.214;2024-02-21T14:05:09;7.72;;;2.00;;
30398;SDS011;17195;50.838;7.214;2024-02-21T14:07:35;7.85;;;1.95;;
30398;SDS011;17195;50.838;7.214;2024-02-21T14:10:01;7.80;;;2.03;;
30398;SDS011;17195;50.838;7.214;2024-02-21T14:12:26;7.28;;;2.22;;
30398;SDS011;17195;50.838;7.214;2024-02-21T14:14:52;7.63;;;2.22;;
30398;SDS011;17195;50.838;7.214;2024-02-21T14:17:18;7.63;;;2.05;;
30398;SDS011;17195;50.838;7.214;2024-02-21T14:19:45;8.10;;;2.72;;
30398;SDS011;17195;50.838;7.214;2024-02-21T14:22:10;7.88;;;2.50;;
30398;SDS011;17195;50.838;7.214;2024-02-21T14:24:36;12.30;;;4.32;;
30398;SDS011;17195;50.838;7.214;2024-02-21T14:27:02;17.35;;;5.82;;
30398;SDS011;17195;50.838;7.214;2024-02-21T14:29:28;8.27;;;2.65;;
30398;SDS011;17195;50.838;7.214;2024-02-21T14:31:54;11.07;;;2.15;;
30398;SDS011;17195;50.838;7.214;2024-02-21T14:34:19;9.35;;;2.75;;
30398;SDS011;17195;50.838;7.214;2024-02-21T14:36:45;8.18;;;2.80;;
30398;SDS011;17195;50.838;7.214;2024-02-21T14:39:11;9.60;;;2.47;;
30398;SDS011;17195;50.838;7.214;2024-02-21T14:41:36;6.70;;;2.42;;
30398;SDS011;17195;50.838;7.214;2024-02-21T14:44:04;6.18;;;2.17;;
30398;SDS011;17195;50.838;7.214;2024-02-21T14:46:30;5.95;;;2.45;;